This is the latest recevied weather packets stored in our database for station/object K5GHS-1. If no packets are shown the sender has not sent any weather packets the latest 10 day(s).
| Time | Temp. | Humidity | Pressure | Rain* | Wind** | Luminosity | Snow |
|---|---|---|---|---|---|---|---|
| 1777871966 | 20.56° C | 54% | 1013.7 hPa | 0 mm | - | 0 W/m² | - |
| 1777871662 | 20.56° C | 54% | 1014.1 hPa | 0 mm | - | 0 W/m² | - |
| 1777871358 | 20.56° C | 53% | 1013.7 hPa | 0 mm | - | 0 W/m² | - |
| 1777871055 | 20.56° C | 54% | 1014 hPa | 0 mm | - | 0 W/m² | - |
| 1777870752 | 20.56° C | 53% | 1014 hPa | 0 mm | - | 0 W/m² | - |
| 1777870448 | 20.56° C | 53% | 1014 hPa | 0 mm | - | 0 W/m² | - |
| 1777870145 | 21.11° C | 53% | 1013.9 hPa | 0 mm | - | 0 W/m² | - |
| 1777869842 | 21.11° C | 53% | 1014.1 hPa | 0 mm | - | 0 W/m² | - |
| 1777869540 | 21.11° C | 52% | 1014.1 hPa | 0 mm | - | 0 W/m² | - |
| 1777869236 | 21.11° C | 52% | 1014.1 hPa | 0 mm | - | 0 W/m² | - |
| 1777868934 | 21.11° C | 51% | 1014 hPa | 0 mm | - | 0 W/m² | - |
| 1777868630 | 21.11° C | 50% | 1013.9 hPa | 0 mm | - | 0 W/m² | - |
| 1777868326 | 21.11° C | 50% | 1014.4 hPa | 0 mm | - | 0 W/m² | - |
| 1777868022 | 21.11° C | 49% | 1014.3 hPa | 0 mm | - | 0 W/m² | - |
| 1777867718 | 21.67° C | 49% | 1014.3 hPa | 0 mm | - | 0 W/m² | - |
| 1777867112 | 21.67° C | 48% | 1014.3 hPa | 0 mm | - | 0 W/m² | - |
| 1777866507 | 21.67° C | 48% | 1014.1 hPa | 0 mm | - | 0 W/m² | - |
| 1777865600 | 21.67° C | 47% | 1014.1 hPa | 0 mm | - | 0 W/m² | - |
| 1777863174 | 22.22° C | 45% | 1014.1 hPa | 0 mm | - | 0 W/m² | - |
| 1777848012 | 27.78° C | 31% | 1014 hPa | 0 mm | - | 333 W/m² | - |
| 1777847405 | 28.89° C | 28% | 1014.1 hPa | 0 mm | - | 352 W/m² | - |
| 1777844077 | 29.44° C | 31% | 1014.6 hPa | 0 mm | - | 506 W/m² | - |
| 1777842256 | 29.44° C | 30% | 1015.3 hPa | 0 mm | - | 509 W/m² | - |
| 1777841951 | 29.44° C | 31% | 1015.1 hPa | 0 mm | - | 517 W/m² | - |
| 1777840739 | 29.44° C | 31% | 1015.4 hPa | 0 mm | - | 606 W/m² | - |
* Rain latest hour (hover to see other rain measurements)
** Current wind speed in m/s (hover to see current wind gust speed)